createdAt,value
2018-06-20T00:00:49.867Z,991.278
2018-06-20T00:02:50.012Z,991.276
2018-06-20T00:04:50.398Z,991.258
2018-06-20T00:06:50.592Z,991.232
2018-06-20T00:08:49.640Z,991.216
2018-06-20T00:10:49.728Z,991.191
2018-06-20T00:12:49.881Z,991.194
2018-06-20T00:14:49.950Z,991.191
2018-06-20T00:16:50.056Z,991.171
2018-06-20T00:18:50.216Z,991.152
2018-06-20T00:20:50.318Z,991.151
2018-06-20T00:22:50.397Z,991.124
2018-06-20T00:24:50.471Z,991.121
2018-06-20T00:26:49.748Z,991.130
2018-06-20T00:28:49.824Z,991.152
2018-06-20T00:30:49.891Z,991.144
2018-06-20T00:32:49.986Z,991.143
2018-06-20T00:34:50.381Z,991.129
2018-06-20T00:36:49.656Z,991.129
2018-06-20T00:38:49.749Z,991.105
2018-06-20T00:40:49.869Z,991.102
2018-06-20T00:42:49.953Z,991.097
2018-06-20T00:44:50.032Z,991.089
2018-06-20T00:46:50.300Z,991.076
2018-06-20T00:48:50.394Z,991.069
2018-06-20T00:50:50.511Z,991.063
2018-06-20T00:52:49.746Z,991.061
2018-06-20T00:54:49.881Z,991.062
2018-06-20T00:56:50.094Z,991.081
2018-06-20T00:58:50.242Z,991.074
2018-06-20T01:00:50.320Z,991.071
2018-06-20T01:02:50.521Z,991.086
2018-06-20T01:04:49.818Z,991.087
2018-06-20T01:06:50.015Z,991.084
2018-06-20T01:08:50.134Z,991.078
2018-06-20T01:10:50.211Z,991.078
2018-06-20T01:12:50.390Z,991.052
2018-06-20T01:14:50.468Z,991.053
2018-06-20T01:16:49.774Z,991.080
2018-06-20T01:18:49.907Z,991.079
2018-06-20T01:20:50.006Z,991.077
2018-06-20T01:22:50.215Z,991.077
2018-06-20T01:24:50.285Z,991.079
2018-06-20T01:26:49.612Z,991.070
2018-06-20T01:28:49.694Z,991.072
2018-06-20T01:30:49.822Z,991.084
2018-06-20T01:32:49.997Z,991.099
2018-06-20T01:34:50.309Z,991.100
2018-06-20T01:36:50.589Z,991.095
2018-06-20T01:38:49.704Z,991.094
2018-06-20T01:40:49.772Z,991.094
2018-06-20T01:42:49.854Z,991.096
2018-06-20T01:44:49.993Z,991.093
2018-06-20T01:46:50.262Z,991.080
2018-06-20T01:48:50.364Z,991.078
2018-06-20T01:50:50.456Z,991.067
2018-06-20T01:52:50.531Z,991.058
2018-06-20T01:54:49.646Z,991.063
2018-06-20T01:56:49.869Z,991.033
2018-06-20T01:58:49.948Z,991.004
2018-06-20T02:00:50.074Z,990.976
2018-06-20T02:02:50.150Z,990.970
2018-06-20T02:04:50.406Z,990.975
2018-06-20T02:06:49.621Z,991.004
2018-06-20T02:08:50.404Z,991.011
2018-06-20T02:10:50.493Z,991.011
2018-06-20T02:12:49.691Z,991.016
2018-06-20T02:14:49.865Z,991.016
2018-06-20T02:16:50.184Z,991.023
2018-06-20T02:18:50.264Z,991.030
2018-06-20T02:20:50.406Z,991.022
2018-06-20T02:22:50.479Z,990.990
2018-06-20T02:24:50.612Z,990.969
2018-06-20T02:26:49.865Z,990.965
2018-06-20T02:28:49.947Z,990.960
2018-06-20T02:30:50.081Z,990.957
2018-06-20T02:32:50.176Z,990.942
2018-06-20T02:34:50.482Z,990.914
2018-06-20T02:36:50.162Z,990.882
2018-06-20T02:38:50.461Z,990.877
2018-06-20T02:40:50.569Z,990.877
2018-06-20T02:42:49.716Z,990.862
2018-06-20T02:44:49.834Z,990.862
2018-06-20T02:46:50.101Z,990.867
2018-06-20T02:48:50.341Z,990.902
2018-06-20T02:50:50.495Z,990.908
2018-06-20T02:52:50.047Z,990.913
2018-06-20T02:54:49.630Z,990.906
2018-06-20T02:56:49.843Z,990.891
2018-06-20T02:58:50.033Z,990.887
2018-06-20T03:00:50.209Z,990.894
2018-06-20T03:02:50.331Z,990.893
2018-06-20T03:04:49.642Z,990.882
2018-06-20T03:06:49.928Z,990.864
2018-06-20T03:08:50.048Z,990.851
2018-06-20T03:10:50.192Z,990.850
2018-06-20T03:12:50.278Z,990.847
2018-06-20T03:14:50.378Z,990.854
2018-06-20T03:16:49.634Z,990.878
2018-06-20T03:18:49.792Z,990.868
2018-06-20T03:20:50.146Z,990.879
2018-06-20T03:22:50.253Z,990.889
2018-06-20T03:24:50.354Z,990.890
2018-06-20T03:26:49.703Z,990.873
2018-06-20T03:28:49.999Z,990.860
2018-06-20T03:30:50.107Z,990.826
2018-06-20T03:32:50.201Z,990.840
2018-06-20T03:34:50.471Z,990.863
2018-06-20T03:36:49.794Z,990.883
2018-06-20T03:38:50.025Z,990.907
2018-06-20T03:40:50.216Z,990.926
2018-06-20T03:42:50.370Z,990.936
2018-06-20T03:44:50.439Z,990.933
2018-06-20T03:46:49.707Z,990.946
2018-06-20T03:48:49.831Z,990.955
2018-06-20T03:50:49.957Z,990.957
2018-06-20T03:52:50.079Z,990.953
2018-06-20T03:54:50.225Z,990.934
2018-06-20T03:56:50.410Z,990.915
2018-06-20T03:58:50.524Z,990.898
2018-06-20T04:00:50.624Z,990.879
2018-06-20T04:02:49.762Z,990.861
2018-06-20T04:04:50.286Z,990.865
2018-06-20T04:06:50.591Z,990.862
2018-06-20T04:08:49.753Z,990.867
2018-06-20T04:10:49.893Z,990.875
2018-06-20T04:12:50.389Z,990.869
2018-06-20T04:14:50.056Z,990.861
2018-06-20T04:16:50.326Z,990.862
2018-06-20T04:18:50.456Z,990.862
2018-06-20T04:20:50.543Z,990.873
2018-06-20T04:22:49.749Z,990.860
2018-06-20T04:24:49.839Z,990.849
2018-06-20T04:26:50.571Z,990.832
2018-06-20T04:28:49.744Z,990.826
2018-06-20T04:30:49.920Z,990.827
2018-06-20T04:32:50.018Z,990.814
2018-06-20T04:34:50.514Z,990.810
2018-06-20T04:36:50.019Z,990.812
2018-06-20T04:38:50.184Z,990.812
2018-06-20T04:40:50.384Z,990.816
2018-06-20T04:42:50.468Z,990.821
2018-06-20T04:44:50.572Z,990.812
2018-06-20T04:46:50.029Z,990.800
2018-06-20T04:48:50.129Z,990.796
2018-06-20T04:50:50.212Z,990.773
2018-06-20T04:52:50.314Z,990.743
2018-06-20T04:54:50.449Z,990.739
2018-06-20T04:56:49.682Z,990.721
2018-06-20T04:58:49.773Z,990.723
2018-06-20T05:00:49.876Z,990.702
2018-06-20T05:02:49.959Z,990.702
2018-06-20T05:04:50.250Z,990.707
2018-06-20T05:06:50.485Z,990.722
2018-06-20T05:08:50.600Z,990.709
2018-06-20T05:10:49.745Z,990.695
2018-06-20T05:12:49.820Z,990.662
2018-06-20T05:14:49.919Z,990.657
2018-06-20T05:16:50.267Z,990.659
2018-06-20T05:18:50.359Z,990.655
2018-06-20T05:20:50.504Z,990.641
2018-06-20T05:22:49.645Z,990.655
2018-06-20T05:24:49.743Z,990.655
2018-06-20T05:26:50.050Z,990.696
2018-06-20T05:28:50.167Z,990.689
2018-06-20T05:30:50.269Z,990.678
2018-06-20T05:32:50.708Z,990.651
2018-06-20T05:34:50.271Z,990.626
2018-06-20T05:36:50.016Z,990.618
2018-06-20T05:38:50.142Z,990.608
2018-06-20T05:40:50.291Z,990.588
2018-06-20T05:42:50.547Z,990.565
2018-06-20T05:44:49.663Z,990.565
2018-06-20T05:46:50.029Z,990.557
2018-06-20T05:48:50.143Z,990.553
2018-06-20T05:50:50.267Z,990.547
2018-06-20T05:52:50.431Z,990.544
2018-06-20T05:54:50.518Z,990.545
2018-06-20T05:56:49.805Z,990.505
2018-06-20T05:58:49.987Z,990.480
2018-06-20T06:00:50.302Z,990.480
2018-06-20T06:02:50.472Z,990.457
2018-06-20T06:04:49.764Z,990.463
2018-06-20T06:06:49.918Z,990.463
2018-06-20T06:08:50.015Z,990.463
2018-06-20T06:10:50.100Z,990.458
2018-06-20T06:12:50.273Z,990.462
2018-06-20T06:14:50.414Z,990.456
2018-06-20T06:16:49.990Z,990.443
2018-06-20T06:18:50.307Z,990.457
2018-06-20T06:20:50.417Z,990.440
2018-06-20T06:22:49.633Z,990.440
2018-06-20T06:24:49.714Z,990.440
2018-06-20T06:26:49.905Z,990.434
2018-06-20T06:28:50.085Z,990.413
2018-06-20T06:30:50.360Z,990.390
2018-06-20T06:32:50.612Z,990.390
2018-06-20T06:34:49.924Z,990.404
2018-06-20T06:36:50.225Z,990.396
2018-06-20T06:38:50.456Z,990.382
2018-06-20T06:40:50.569Z,990.380
2018-06-20T06:42:49.923Z,990.378
2018-06-20T06:44:50.037Z,990.374
2018-06-20T06:46:50.320Z,990.365
2018-06-20T06:48:50.455Z,990.358
2018-06-20T06:50:50.561Z,990.363
2018-06-20T06:52:49.663Z,990.353
2018-06-20T06:54:49.873Z,990.355
2018-06-20T06:56:50.138Z,990.349
2018-06-20T06:58:50.394Z,990.353
2018-06-20T07:00:50.584Z,990.320
2018-06-20T07:02:49.719Z,990.327
2018-06-20T07:04:50.005Z,990.332
2018-06-20T07:06:50.238Z,990.314
2018-06-20T07:08:50.312Z,990.316
2018-06-20T07:10:50.466Z,990.301
2018-06-20T07:12:50.603Z,990.267
2018-06-20T07:14:49.779Z,990.250
2018-06-20T07:16:50.017Z,990.237
2018-06-20T07:18:50.134Z,990.233
2018-06-20T07:20:50.298Z,990.216
2018-06-20T07:22:50.500Z,990.198
2018-06-20T07:24:49.611Z,990.187
2018-06-20T07:26:49.839Z,990.190
2018-06-20T07:28:49.930Z,990.173
2018-06-20T07:30:50.144Z,990.164
2018-06-20T07:32:50.278Z,990.154
2018-06-20T07:34:49.739Z,990.139
2018-06-20T07:36:49.953Z,990.122
2018-06-20T07:38:50.113Z,990.122
2018-06-20T07:40:50.197Z,990.126
2018-06-20T07:42:50.270Z,990.103
2018-06-20T07:44:50.367Z,990.107
2018-06-20T07:46:50.741Z,990.078
2018-06-20T07:48:49.800Z,990.082
2018-06-20T07:50:50.088Z,990.076
2018-06-20T07:52:49.764Z,990.067
2018-06-20T07:54:49.826Z,990.063
2018-06-20T07:56:50.274Z,990.055
2018-06-20T07:58:50.343Z,990.055
2018-06-20T08:00:50.906Z,990.038
2018-06-20T08:02:50.587Z,990.004
2018-06-20T08:04:50.502Z,990.009
2018-06-20T08:06:50.613Z,990.037
2018-06-20T08:08:49.866Z,990.026
2018-06-20T08:10:49.981Z,990.040
2018-06-20T08:12:50.080Z,990.025
2018-06-20T08:14:50.271Z,990.014
2018-06-20T08:16:50.546Z,990.014
2018-06-20T08:18:50.392Z,989.961
2018-06-20T08:20:49.871Z,989.939
2018-06-20T08:22:50.141Z,989.910
2018-06-20T08:24:50.283Z,989.851
2018-06-20T08:26:50.520Z,989.850
2018-06-20T08:28:50.589Z,989.831
2018-06-20T08:30:49.631Z,989.831
2018-06-20T08:32:49.752Z,989.803
2018-06-20T08:34:50.076Z,989.772
2018-06-20T08:36:50.298Z,989.768
2018-06-20T08:38:50.363Z,989.775
2018-06-20T08:40:50.448Z,989.783
2018-06-20T08:42:50.535Z,989.798
2018-06-20T08:44:50.608Z,989.785
2018-06-20T08:46:49.894Z,989.742
2018-06-20T08:48:50.009Z,989.692
2018-06-20T08:50:50.144Z,989.663
2018-06-20T08:52:50.281Z,989.655
2018-06-20T08:54:50.330Z,989.626
2018-06-20T08:56:50.494Z,989.605
2018-06-20T08:58:50.584Z,989.590
2018-06-20T09:00:49.644Z,989.564
2018-06-20T09:02:50.557Z,989.526
2018-06-20T09:04:49.915Z,989.534
2018-06-20T09:06:50.057Z,989.535
2018-06-20T09:08:50.223Z,989.522
2018-06-20T09:10:50.342Z,989.534
2018-06-20T09:12:50.389Z,989.534
2018-06-20T09:14:50.537Z,989.532
2018-06-20T09:16:49.941Z,989.540
2018-06-20T09:18:50.105Z,989.511
2018-06-20T09:20:50.214Z,989.491
2018-06-20T09:22:50.282Z,989.464
2018-06-20T09:24:50.471Z,989.447
2018-06-20T09:26:49.756Z,989.414
2018-06-20T09:28:49.898Z,989.412
2018-06-20T09:30:50.083Z,989.411
2018-06-20T09:32:50.244Z,989.376
2018-06-20T09:34:50.597Z,989.374
2018-06-20T09:36:49.861Z,989.454
2018-06-20T09:38:50.039Z,989.464
2018-06-20T09:40:50.233Z,989.447
2018-06-20T09:42:50.348Z,989.443
2018-06-20T09:44:50.521Z,989.412
2018-06-20T09:46:49.720Z,989.412
2018-06-20T09:48:49.853Z,989.372
2018-06-20T09:50:50.084Z,989.388
2018-06-20T09:52:50.392Z,989.372
2018-06-20T09:54:50.578Z,989.330
2018-06-20T09:56:49.855Z,989.360
2018-06-20T09:58:49.986Z,989.343
2018-06-20T10:00:50.109Z,989.300
2018-06-20T10:02:50.273Z,989.289
2018-06-20T10:04:50.577Z,989.293
2018-06-20T10:06:50.046Z,989.301
2018-06-20T10:08:49.717Z,989.337
2018-06-20T10:10:49.890Z,989.298
2018-06-20T10:12:50.030Z,989.280
2018-06-20T10:14:49.935Z,989.263
2018-06-20T10:16:50.151Z,989.204
2018-06-20T10:18:50.286Z,989.204
2018-06-20T10:20:50.423Z,989.196
2018-06-20T10:22:50.533Z,989.151
2018-06-20T10:24:49.773Z,989.135
2018-06-20T10:26:49.940Z,989.097
2018-06-20T10:28:49.993Z,989.086
2018-06-20T10:30:50.141Z,989.028
2018-06-20T10:32:50.243Z,989.019
2018-06-20T10:34:50.580Z,989.003
2018-06-20T10:36:49.795Z,988.962
2018-06-20T10:38:49.877Z,988.940
2018-06-20T10:40:49.958Z,988.939
2018-06-20T10:42:50.048Z,988.917
2018-06-20T10:44:50.130Z,988.865
2018-06-20T10:46:50.367Z,988.827
2018-06-20T10:48:50.541Z,988.800
2018-06-20T10:50:49.651Z,988.800
2018-06-20T10:52:49.715Z,988.781
2018-06-20T10:54:49.813Z,988.741
2018-06-20T10:56:49.967Z,988.705
2018-06-20T10:58:50.088Z,988.681
2018-06-20T11:00:50.389Z,988.666
2018-06-20T11:02:50.607Z,988.626
2018-06-20T11:04:49.882Z,988.641
2018-06-20T11:06:50.104Z,988.630
2018-06-20T11:08:50.157Z,988.621
2018-06-20T11:10:50.211Z,988.602
2018-06-20T11:12:49.683Z,988.540
2018-06-20T11:14:49.866Z,988.515
2018-06-20T11:16:50.112Z,988.472
2018-06-20T11:18:50.188Z,988.452
2018-06-20T11:20:50.291Z,988.400
2018-06-20T11:22:50.251Z,988.383
2018-06-20T11:24:50.425Z,988.383
2018-06-20T11:26:49.642Z,988.326
2018-06-20T11:28:49.761Z,988.310
2018-06-20T11:30:49.910Z,988.309
2018-06-20T11:32:50.016Z,988.235
2018-06-20T11:34:50.308Z,988.200
2018-06-20T11:36:50.609Z,988.210
2018-06-20T11:38:49.741Z,988.194
2018-06-20T11:40:49.948Z,988.146
2018-06-20T11:42:50.049Z,988.120
2018-06-20T11:44:50.198Z,988.094
2018-06-20T11:46:50.485Z,988.078
2018-06-20T11:48:49.626Z,988.065
2018-06-20T11:50:49.754Z,988.008
2018-06-20T11:52:49.814Z,987.968
2018-06-20T11:54:49.694Z,987.952
2018-06-20T11:56:49.939Z,987.952
2018-06-20T11:58:50.022Z,987.907
2018-06-20T12:00:50.067Z,987.896
2018-06-20T12:02:50.077Z,987.856
2018-06-20T12:04:50.385Z,987.844
2018-06-20T12:06:50.575Z,987.830
2018-06-20T12:08:49.778Z,987.854
2018-06-20T12:10:49.872Z,987.868
2018-06-20T12:12:50.042Z,987.811
2018-06-20T12:14:50.169Z,987.793
2018-06-20T12:16:50.280Z,987.754
2018-06-20T12:18:50.450Z,987.734
2018-06-20T12:20:50.562Z,987.701
2018-06-20T12:22:49.889Z,987.684
2018-06-20T12:24:50.019Z,987.658
2018-06-20T12:26:50.290Z,987.626
2018-06-20T12:28:50.446Z,987.587
2018-06-20T12:30:49.620Z,987.565
2018-06-20T12:32:49.739Z,987.508
2018-06-20T12:34:50.090Z,987.478
2018-06-20T12:36:50.343Z,987.454
2018-06-20T12:38:50.456Z,987.412
2018-06-20T12:40:50.323Z,987.390
2018-06-20T12:42:49.710Z,987.401
2018-06-20T12:44:49.757Z,987.400
2018-06-20T12:46:50.612Z,987.391
2018-06-20T12:48:49.808Z,987.352
2018-06-20T12:50:49.932Z,987.350
2018-06-20T12:52:50.181Z,987.337
2018-06-20T12:54:50.384Z,987.316
2018-06-20T12:56:49.702Z,987.306
2018-06-20T12:58:49.849Z,987.276
2018-06-20T13:00:50.001Z,987.240
2018-06-20T13:02:50.007Z,987.201
2018-06-20T13:04:50.086Z,987.195
2018-06-20T13:06:50.220Z,987.219
2018-06-20T13:08:50.423Z,987.246
2018-06-20T13:10:49.633Z,987.242
2018-06-20T13:12:49.752Z,987.215
2018-06-20T13:14:49.811Z,987.144
2018-06-20T13:16:50.038Z,987.146
2018-06-20T13:18:50.199Z,987.129
2018-06-20T13:20:50.260Z,987.096
2018-06-20T13:22:50.384Z,987.071
2018-06-20T13:24:50.436Z,987.034
2018-06-20T13:26:50.688Z,987.016
2018-06-20T13:28:50.248Z,986.985
2018-06-20T13:30:50.292Z,986.959
2018-06-20T13:32:50.316Z,986.933
2018-06-20T13:34:49.705Z,986.907
2018-06-20T13:36:49.814Z,986.876
2018-06-20T13:38:49.868Z,986.887
2018-06-20T13:40:49.695Z,986.881
2018-06-20T13:42:49.751Z,986.867
2018-06-20T13:44:49.805Z,986.861
2018-06-20T13:46:50.016Z,986.826
2018-06-20T13:48:50.041Z,986.799
2018-06-20T13:50:50.171Z,986.801
2018-06-20T13:52:50.190Z,986.818
2018-06-20T13:54:50.267Z,986.788
2018-06-20T13:56:50.452Z,986.754
2018-06-20T13:58:50.543Z,986.715
2018-06-20T14:00:49.648Z,986.702
2018-06-20T14:02:49.701Z,986.712
2018-06-20T14:04:49.956Z,986.670
2018-06-20T14:06:50.169Z,986.602
2018-06-20T14:08:50.221Z,986.602
2018-06-20T14:10:50.282Z,986.584
2018-06-20T14:12:50.316Z,986.587
2018-06-20T14:14:50.335Z,986.554
2018-06-20T14:16:50.823Z,986.513
2018-06-20T14:18:50.331Z,986.512
2018-06-20T14:20:50.395Z,986.487
2018-06-20T14:22:50.427Z,986.433
2018-06-20T14:24:50.497Z,986.421
2018-06-20T14:26:49.635Z,986.425
2018-06-20T14:28:49.657Z,986.414
2018-06-20T14:30:49.756Z,986.365
2018-06-20T14:32:49.786Z,986.330
2018-06-20T14:34:50.108Z,986.299
2018-06-20T14:36:50.334Z,986.287
2018-06-20T14:38:50.912Z,986.276
2018-06-20T14:40:50.325Z,986.287
2018-06-20T14:42:50.215Z,986.266
2018-06-20T14:44:50.283Z,986.231
2018-06-20T14:46:50.473Z,986.184
2018-06-20T14:48:50.506Z,986.183
2018-06-20T14:50:50.555Z,986.175
2018-06-20T14:52:49.629Z,986.207
2018-06-20T14:54:49.700Z,986.207
2018-06-20T14:56:49.798Z,986.128
2018-06-20T14:58:49.836Z,986.124
2018-06-20T15:00:50.018Z,986.089
2018-06-20T15:02:50.598Z,986.086
2018-06-20T15:04:49.973Z,986.075
2018-06-20T15:06:50.380Z,986.063
2018-06-20T15:08:49.879Z,986.040
2018-06-20T15:10:50.038Z,986.015
2018-06-20T15:12:50.072Z,986.015
2018-06-20T15:14:50.133Z,985.998
2018-06-20T15:16:50.450Z,985.999
2018-06-20T15:18:49.791Z,985.938
2018-06-20T15:20:49.850Z,985.907
2018-06-20T15:22:49.896Z,985.894
2018-06-20T15:24:49.983Z,985.891
2018-06-20T15:26:50.119Z,985.864
2018-06-20T15:28:50.111Z,985.806
2018-06-20T15:30:50.236Z,985.798
2018-06-20T15:32:50.345Z,985.769
2018-06-20T15:34:50.507Z,985.734
2018-06-20T15:36:49.716Z,985.702
2018-06-20T15:38:49.783Z,985.669
2018-06-20T15:40:49.802Z,985.664
2018-06-20T15:42:49.966Z,985.643
2018-06-20T15:44:50.056Z,985.633
2018-06-20T15:46:50.276Z,985.593
2018-06-20T15:48:50.295Z,985.589
2018-06-20T15:50:50.317Z,985.541
2018-06-20T15:52:50.523Z,985.505
2018-06-20T15:54:49.615Z,985.475
2018-06-20T15:56:49.785Z,985.439
2018-06-20T15:58:49.824Z,985.429
2018-06-20T16:00:49.845Z,985.429
2018-06-20T16:02:49.857Z,985.405
2018-06-20T16:04:50.060Z,985.382
2018-06-20T16:06:50.221Z,985.366
2018-06-20T16:08:50.304Z,985.381
2018-06-20T16:10:50.353Z,985.382
2018-06-20T16:12:50.431Z,985.369
2018-06-20T16:14:50.486Z,985.353
2018-06-20T16:16:49.937Z,985.321
2018-06-20T16:18:50.048Z,985.310
2018-06-20T16:20:50.111Z,985.310
2018-06-20T16:22:50.184Z,985.286
2018-06-20T16:24:50.201Z,985.286
2018-06-20T16:26:50.381Z,985.273
2018-06-20T16:28:50.393Z,985.254
2018-06-20T16:30:50.514Z,985.272
2018-06-20T16:32:50.525Z,985.266
2018-06-20T16:34:49.905Z,985.268
2018-06-20T16:36:50.003Z,985.240
2018-06-20T16:38:50.117Z,985.189
2018-06-20T16:40:50.155Z,985.180
2018-06-20T16:42:50.485Z,985.183
2018-06-20T16:44:50.572Z,985.167
2018-06-20T16:46:49.708Z,985.142
2018-06-20T16:48:49.818Z,985.145
2018-06-20T16:50:50.003Z,985.148
2018-06-20T16:52:50.085Z,985.149
2018-06-20T16:54:50.145Z,985.130
2018-06-20T16:56:50.367Z,985.123
2018-06-20T16:58:50.422Z,985.097
2018-06-20T17:00:50.529Z,985.097
2018-06-20T17:02:50.582Z,985.092
2018-06-20T17:04:49.878Z,985.078
2018-06-20T17:06:49.983Z,985.079
2018-06-20T17:08:50.026Z,985.082
2018-06-20T17:10:50.184Z,985.053
2018-06-20T17:12:50.209Z,985.039
2018-06-20T17:14:50.260Z,985.013
2018-06-20T17:16:50.412Z,985.015
2018-06-20T17:18:50.482Z,985.019
2018-06-20T17:20:50.536Z,985.021
2018-06-20T17:22:50.200Z,985.028
2018-06-20T17:24:50.331Z,984.982
2018-06-20T17:26:50.216Z,984.964
2018-06-20T17:28:50.253Z,984.970
2018-06-20T17:30:50.398Z,984.978
2018-06-20T17:32:50.402Z,984.980
2018-06-20T17:34:49.612Z,985.001
2018-06-20T17:36:49.710Z,984.985
2018-06-20T17:38:49.792Z,984.955
2018-06-20T17:40:49.858Z,984.932
2018-06-20T17:42:49.995Z,984.943
2018-06-20T17:44:50.034Z,984.941
2018-06-20T17:46:50.290Z,984.934
2018-06-20T17:48:50.301Z,984.942
2018-06-20T17:50:50.362Z,984.910
2018-06-20T17:52:50.385Z,984.911
2018-06-20T17:54:50.440Z,984.897
2018-06-20T17:56:49.643Z,984.904
2018-06-20T17:58:49.697Z,984.913
2018-06-20T18:00:49.736Z,984.913
2018-06-20T18:02:49.810Z,984.908
2018-06-20T18:04:50.025Z,984.907
2018-06-20T18:06:50.144Z,984.902
2018-06-20T18:08:50.066Z,984.880
2018-06-20T18:10:50.152Z,984.875
2018-06-20T18:12:50.061Z,984.862
2018-06-20T18:14:50.005Z,984.860
2018-06-20T18:16:50.209Z,984.832
2018-06-20T18:18:50.400Z,984.823
2018-06-20T18:20:50.429Z,984.804
2018-06-20T18:22:50.498Z,984.807
2018-06-20T18:24:50.512Z,984.813
2018-06-20T18:26:49.730Z,984.825
2018-06-20T18:28:49.741Z,984.819
2018-06-20T18:30:49.753Z,984.819
2018-06-20T18:32:49.829Z,984.803
2018-06-20T18:34:50.190Z,984.780
2018-06-20T18:36:49.640Z,984.775
2018-06-20T18:38:49.625Z,984.781
2018-06-20T18:40:49.653Z,984.770
2018-06-20T18:42:49.682Z,984.768
2018-06-20T18:44:49.897Z,984.778
2018-06-20T18:46:50.079Z,984.777
2018-06-20T18:48:50.592Z,984.789
2018-06-20T18:50:50.112Z,984.789
2018-06-20T18:52:50.238Z,984.828
2018-06-20T18:54:50.272Z,984.834
2018-06-20T18:56:50.507Z,984.833
2018-06-20T18:58:50.531Z,984.842
2018-06-20T19:00:50.596Z,984.850
2018-06-20T19:02:49.637Z,984.844
2018-06-20T19:04:49.978Z,984.847
2018-06-20T19:06:50.298Z,984.851
2018-06-20T19:08:49.803Z,984.870
2018-06-20T19:10:50.170Z,984.860
2018-06-20T19:12:50.249Z,984.854
2018-06-20T19:14:50.279Z,984.865
2018-06-20T19:16:50.444Z,984.874
2018-06-20T19:18:50.513Z,984.883
2018-06-20T19:20:50.532Z,984.883
2018-06-20T19:22:50.554Z,984.882
2018-06-20T19:24:49.598Z,984.908
2018-06-20T19:26:49.772Z,984.936
2018-06-20T19:28:49.779Z,984.964
2018-06-20T19:30:49.839Z,984.998
2018-06-20T19:32:49.856Z,985.021
2018-06-20T19:34:50.080Z,985.038
2018-06-20T19:36:50.315Z,985.058
2018-06-20T19:38:50.358Z,985.052
2018-06-20T19:40:50.423Z,985.061
2018-06-20T19:42:49.612Z,985.069
2018-06-20T19:44:50.072Z,985.087
2018-06-20T19:46:49.803Z,985.112
2018-06-20T19:48:49.862Z,985.125
2018-06-20T19:50:49.886Z,985.151
2018-06-20T19:52:50.117Z,985.182
2018-06-20T19:54:50.177Z,985.191
2018-06-20T19:56:50.334Z,985.186
2018-06-20T19:58:50.422Z,985.196
2018-06-20T20:00:50.474Z,985.215
2018-06-20T20:02:50.502Z,985.221
2018-06-20T20:04:49.851Z,985.237
2018-06-20T20:06:50.037Z,985.259
2018-06-20T20:08:50.120Z,985.262
2018-06-20T20:10:50.201Z,985.254
2018-06-20T20:12:50.374Z,985.247
2018-06-20T20:14:50.890Z,985.243
2018-06-20T20:16:50.269Z,985.247
2018-06-20T20:18:50.315Z,985.238
2018-06-20T20:20:50.361Z,985.259
2018-06-20T20:22:50.387Z,985.273
2018-06-20T20:24:50.403Z,985.299
2018-06-20T20:26:49.625Z,985.299
2018-06-20T20:28:49.669Z,985.316
2018-06-20T20:30:49.776Z,985.306
2018-06-20T20:32:49.824Z,985.320
2018-06-20T20:34:50.128Z,985.307
2018-06-20T20:36:50.321Z,985.300
2018-06-20T20:38:50.355Z,985.316
2018-06-20T20:40:50.416Z,985.324
2018-06-20T20:42:50.576Z,985.329
2018-06-20T20:44:49.644Z,985.328
2018-06-20T20:46:49.906Z,985.305
2018-06-20T20:48:49.970Z,985.285
2018-06-20T20:50:49.995Z,985.288
2018-06-20T20:52:50.076Z,985.290
2018-06-20T20:54:50.115Z,985.299
2018-06-20T20:56:50.285Z,985.294
2018-06-20T20:58:50.505Z,985.282
2018-06-20T21:00:49.634Z,985.285
2018-06-20T21:02:49.712Z,985.294
2018-06-20T21:04:49.973Z,985.303
2018-06-20T21:06:50.138Z,985.312
2018-06-20T21:08:50.159Z,985.324
2018-06-20T21:10:50.132Z,985.336
2018-06-20T21:12:50.017Z,985.328
2018-06-20T21:14:49.872Z,985.341
2018-06-20T21:16:49.875Z,985.351
2018-06-20T21:18:49.713Z,985.355
2018-06-20T21:20:49.782Z,985.341
2018-06-20T21:22:49.794Z,985.333
2018-06-20T21:24:49.718Z,985.330
2018-06-20T21:26:49.798Z,985.318
2018-06-20T21:28:49.635Z,985.302
2018-06-20T21:30:50.485Z,985.303
2018-06-20T21:32:50.382Z,985.278
2018-06-20T21:34:50.556Z,985.271
2018-06-20T21:36:49.619Z,985.249
2018-06-20T21:38:50.470Z,985.234
2018-06-20T21:40:50.366Z,985.238
2018-06-20T21:42:50.246Z,985.242
2018-06-20T21:44:50.094Z,985.236
2018-06-20T21:46:50.036Z,985.235
2018-06-20T21:48:50.212Z,985.268
2018-06-20T21:50:50.243Z,985.265
2018-06-20T21:52:50.340Z,985.290
2018-06-20T21:54:50.353Z,985.292
2018-06-20T21:56:50.493Z,985.286
2018-06-20T21:58:50.520Z,985.261
2018-06-20T22:00:49.692Z,985.250
2018-06-20T22:02:49.811Z,985.246
2018-06-20T22:04:50.181Z,985.246
2018-06-20T22:06:50.323Z,985.215
2018-06-20T22:08:50.395Z,985.215
2018-06-20T22:10:50.443Z,985.203
2018-06-20T22:12:50.609Z,985.184
2018-06-20T22:14:49.887Z,985.167
2018-06-20T22:16:49.676Z,985.138
2018-06-20T22:18:49.711Z,985.130
2018-06-20T22:20:49.755Z,985.112
2018-06-20T22:22:49.839Z,985.101
2018-06-20T22:24:49.871Z,985.088
2018-06-20T22:26:50.187Z,985.059
2018-06-20T22:28:50.186Z,985.030
2018-06-20T22:30:50.218Z,985.012
2018-06-20T22:32:50.389Z,985.001
2018-06-20T22:34:49.606Z,984.994
2018-06-20T22:36:49.831Z,984.986
2018-06-20T22:38:49.918Z,984.979
2018-06-20T22:40:49.937Z,984.964
2018-06-20T22:42:50.010Z,984.962
2018-06-20T22:44:50.029Z,984.962
2018-06-20T22:46:50.270Z,984.968
2018-06-20T22:48:50.308Z,984.985
2018-06-20T22:50:50.373Z,984.970
2018-06-20T22:52:50.376Z,984.945
2018-06-20T22:54:50.432Z,984.950
2018-06-20T22:56:49.723Z,984.936
2018-06-20T22:58:49.869Z,984.926
2018-06-20T23:00:49.912Z,984.930
2018-06-20T23:02:50.013Z,984.928
2018-06-20T23:04:50.313Z,984.936
2018-06-20T23:06:50.538Z,984.934
2018-06-20T23:08:50.594Z,984.919
2018-06-20T23:10:49.645Z,984.907
2018-06-20T23:12:49.704Z,984.892
2018-06-20T23:14:49.721Z,984.873
2018-06-20T23:16:49.941Z,984.867
2018-06-20T23:18:50.011Z,984.879
2018-06-20T23:20:50.062Z,984.879
2018-06-20T23:22:50.126Z,984.810
2018-06-20T23:24:50.216Z,984.780
2018-06-20T23:26:50.419Z,984.753
2018-06-20T23:28:50.461Z,984.752
2018-06-20T23:30:50.566Z,984.732
2018-06-20T23:32:50.586Z,984.720
2018-06-20T23:34:49.897Z,984.705
2018-06-20T23:36:50.151Z,984.665
2018-06-20T23:38:50.219Z,984.653
2018-06-20T23:40:50.248Z,984.629
2018-06-20T23:42:50.311Z,984.614
2018-06-20T23:44:50.341Z,984.622
2018-06-20T23:46:50.468Z,984.622
2018-06-20T23:48:50.530Z,984.682
2018-06-20T23:50:50.532Z,984.696
2018-06-20T23:52:50.562Z,984.681
2018-06-20T23:54:50.560Z,984.657
2018-06-20T23:56:49.791Z,984.662
2018-06-20T23:58:49.806Z,984.646
